createdAt,value
2023-04-26T00:01:34.821Z,99.90
2023-04-26T00:04:02.124Z,99.90
2023-04-26T00:06:29.107Z,99.90
2023-04-26T00:08:55.994Z,99.90
2023-04-26T00:11:24.275Z,99.90
2023-04-26T00:13:51.037Z,99.90
2023-04-26T00:16:17.929Z,99.90
2023-04-26T00:18:44.900Z,99.90
2023-04-26T00:21:11.642Z,99.90
2023-04-26T00:23:38.394Z,99.90
2023-04-26T00:26:05.323Z,99.90
2023-04-26T00:28:33.500Z,99.90
2023-04-26T00:31:00.230Z,99.90
2023-04-26T00:33:27.005Z,99.90
2023-04-26T00:35:53.745Z,99.90
2023-04-26T00:38:20.477Z,99.90
2023-04-26T00:40:47.289Z,99.90
2023-04-26T00:43:14.169Z,99.90
2023-04-26T00:45:42.434Z,99.90
2023-04-26T00:48:09.313Z,99.90
2023-04-26T00:50:36.195Z,99.90
2023-04-26T00:53:03.438Z,99.90
2023-04-26T00:55:30.289Z,99.90
2023-04-26T00:57:57.128Z,99.90
2023-04-26T01:00:23.913Z,99.90
2023-04-26T01:02:52.279Z,99.90
2023-04-26T01:05:19.408Z,99.90
2023-04-26T01:07:46.566Z,99.90
2023-04-26T01:10:13.390Z,99.90
2023-04-26T01:12:40.807Z,99.90
2023-04-26T01:15:08.484Z,99.90
2023-04-26T01:17:35.297Z,99.90
2023-04-26T01:20:04.247Z,99.90
2023-04-26T01:22:34.703Z,99.90
2023-04-26T01:25:03.803Z,99.90
2023-04-26T01:27:30.570Z,99.90
2023-04-26T01:29:57.322Z,99.90
2023-04-26T01:32:24.112Z,99.90
2023-04-26T01:34:50.849Z,99.90
2023-04-26T01:37:17.592Z,99.90
2023-04-26T01:39:45.711Z,99.90
2023-04-26T01:42:12.480Z,99.90
2023-04-26T01:44:39.272Z,99.90
2023-04-26T01:47:06.002Z,99.90
2023-04-26T01:49:32.960Z,99.90
2023-04-26T01:52:01.104Z,99.90
2023-04-26T01:54:27.919Z,99.90
2023-04-26T01:56:56.047Z,99.90
2023-04-26T01:59:22.959Z,99.90
2023-04-26T02:01:49.858Z,99.90
2023-04-26T02:04:16.671Z,99.90
2023-04-26T02:06:43.403Z,99.90
2023-04-26T02:09:10.142Z,99.90
2023-04-26T02:11:37.043Z,99.90
2023-04-26T02:14:05.164Z,99.90
2023-04-26T02:16:32.154Z,99.90
2023-04-26T02:18:59.157Z,99.90
2023-04-26T02:21:26.022Z,99.90
2023-04-26T02:23:52.886Z,99.90
2023-04-26T02:26:19.712Z,99.90
2023-04-26T02:28:46.447Z,99.90
2023-04-26T02:31:14.643Z,99.90
2023-04-26T02:33:41.524Z,99.90
2023-04-26T02:36:08.556Z,99.90
2023-04-26T02:38:35.786Z,99.90
2023-04-26T02:41:03.492Z,99.90
2023-04-26T02:43:30.380Z,99.90
2023-04-26T02:45:57.245Z,99.90
2023-04-26T02:48:25.362Z,99.90
2023-04-26T02:50:52.195Z,99.90
2023-04-26T02:53:19.186Z,99.90
2023-04-26T02:55:45.991Z,99.90
2023-04-26T02:58:12.760Z,99.90
2023-04-26T03:00:39.634Z,99.90
2023-04-26T03:03:06.490Z,99.90
2023-04-26T03:05:34.798Z,99.90
2023-04-26T03:08:01.614Z,99.90
2023-04-26T03:10:28.427Z,99.90
2023-04-26T03:12:55.207Z,99.90
2023-04-26T03:15:21.972Z,99.90
2023-04-26T03:17:48.845Z,99.90
2023-04-26T03:20:15.753Z,99.90
2023-04-26T03:22:43.849Z,99.90
2023-04-26T03:25:10.889Z,99.90
2023-04-26T03:27:37.636Z,99.90
2023-04-26T03:30:05.402Z,99.90
2023-04-26T03:32:32.156Z,99.90
2023-04-26T03:34:59.099Z,99.90
2023-04-26T03:37:25.945Z,99.90
2023-04-26T03:39:54.157Z,99.90
2023-04-26T03:42:21.234Z,99.90
2023-04-26T03:44:48.153Z,99.90
2023-04-26T03:47:14.910Z,99.90
2023-04-26T03:49:41.749Z,99.90
2023-04-26T03:52:08.486Z,99.90
2023-04-26T03:54:35.322Z,99.90
2023-04-26T03:57:03.441Z,99.90
2023-04-26T03:59:30.289Z,99.90
2023-04-26T04:01:57.045Z,99.90
2023-04-26T04:04:24.103Z,99.90
2023-04-26T04:06:51.087Z,99.90
2023-04-26T04:09:17.887Z,99.90
2023-04-26T04:11:45.819Z,99.90
2023-04-26T04:14:15.737Z,99.90
2023-04-26T04:16:42.589Z,99.90
2023-04-26T04:19:09.538Z,99.90
2023-04-26T04:21:36.306Z,99.90
2023-04-26T04:24:03.447Z,99.90
2023-04-26T04:26:30.204Z,99.90
2023-04-26T04:28:56.974Z,99.90
2023-04-26T04:31:25.231Z,99.90
2023-04-26T04:33:52.033Z,99.90
2023-04-26T04:36:18.808Z,99.90
2023-04-26T04:38:45.572Z,99.90
2023-04-26T04:41:12.321Z,99.90
2023-04-26T04:43:39.410Z,99.90
2023-04-26T04:46:06.296Z,99.90
2023-04-26T14:01:13.399Z,59.20
2023-04-26T14:03:41.834Z,43.90
2023-04-26T14:06:08.797Z,44.20
2023-04-26T14:08:35.651Z,45.00
2023-04-26T14:11:02.542Z,43.30
2023-04-26T14:13:29.336Z,40.10
2023-04-26T14:15:56.225Z,38.70
2023-04-26T14:18:23.027Z,38.20
2023-04-26T14:20:51.257Z,38.40
2023-04-26T14:23:18.051Z,39.30
2023-04-26T14:25:44.851Z,40.50
2023-04-26T14:28:11.663Z,41.50
2023-04-26T14:30:38.599Z,42.20
2023-04-26T14:33:05.470Z,43.10
2023-04-26T14:35:32.215Z,44.30
2023-04-26T14:38:00.396Z,45.50
2023-04-26T14:40:27.152Z,47.10
2023-04-26T14:42:53.887Z,47.90
2023-04-26T14:45:23.674Z,48.80
2023-04-26T14:47:54.609Z,49.30
2023-04-26T14:50:21.437Z,49.30
2023-04-26T14:52:48.441Z,48.60
2023-04-26T14:55:18.844Z,45.10
2023-04-26T14:57:45.641Z,41.80
2023-04-26T15:00:13.555Z,40.00
2023-04-26T15:02:40.492Z,40.40
2023-04-26T15:05:08.390Z,41.70
2023-04-26T15:07:35.440Z,43.30
2023-04-26T15:10:02.232Z,45.20
2023-04-26T15:12:30.357Z,46.80
2023-04-26T15:14:57.272Z,48.10
2023-04-26T15:17:24.350Z,49.20
2023-04-26T15:19:51.210Z,49.40
2023-04-26T15:22:18.036Z,49.70
2023-04-26T15:24:44.861Z,49.90
2023-04-26T15:27:11.768Z,49.60
2023-04-26T15:29:39.938Z,47.10
2023-04-26T15:32:06.740Z,45.40
2023-04-26T15:34:39.917Z,43.00
2023-04-26T15:37:06.717Z,40.80
2023-04-26T15:39:33.591Z,39.70
2023-04-26T15:42:00.402Z,37.90
2023-04-26T15:44:27.557Z,36.90
2023-04-26T15:46:55.810Z,36.60
2023-04-26T15:49:23.557Z,37.80
2023-04-26T15:51:50.362Z,40.10
2023-04-26T15:54:17.130Z,41.30
2023-04-26T15:56:44.277Z,40.30
2023-04-26T15:59:11.145Z,39.70
2023-04-26T16:01:38.066Z,39.70
2023-04-26T16:04:06.745Z,39.80
2023-04-26T16:06:33.704Z,40.60
2023-04-26T16:09:01.292Z,41.50
2023-04-26T16:11:28.903Z,42.60
2023-04-26T16:13:56.318Z,43.60
2023-04-26T16:16:23.270Z,45.70
2023-04-26T16:18:50.240Z,46.90
2023-04-26T16:21:18.365Z,46.90
2023-04-26T16:23:45.424Z,47.00
2023-04-26T16:26:12.253Z,47.40
2023-04-26T16:28:39.039Z,47.40
2023-04-26T16:31:05.900Z,47.90
2023-04-26T16:33:32.696Z,49.40
2023-04-26T16:35:59.502Z,49.60
2023-04-26T16:38:27.667Z,50.10
2023-04-26T16:40:54.609Z,50.50
2023-04-26T16:43:21.470Z,50.90
2023-04-26T16:45:56.219Z,52.00
2023-04-26T16:48:23.164Z,52.50
2023-04-26T16:50:50.041Z,52.90
2023-04-26T16:53:17.007Z,53.30
2023-04-26T16:55:45.263Z,53.60
2023-04-26T16:58:11.995Z,54.10
2023-04-26T17:00:38.906Z,54.80
2023-04-26T17:03:06.167Z,55.30
2023-04-26T17:05:37.499Z,55.80
2023-04-26T17:08:04.389Z,55.90
2023-04-26T17:10:32.567Z,56.10
2023-04-26T17:13:01.435Z,56.40
2023-04-26T17:15:28.554Z,56.20
2023-04-26T17:17:55.369Z,56.50
2023-04-26T17:20:23.114Z,57.00
2023-04-26T17:22:49.956Z,56.90
2023-04-26T17:25:17.068Z,57.00
2023-04-26T17:27:43.871Z,57.20
2023-04-26T17:30:12.931Z,57.50
2023-04-26T17:32:39.692Z,57.70
2023-04-26T17:35:06.912Z,58.10
2023-04-26T17:37:33.787Z,58.40
2023-04-26T17:40:00.564Z,58.60
2023-04-26T17:42:27.405Z,58.70
2023-04-26T17:44:54.121Z,58.70
2023-04-26T17:47:22.271Z,58.80
2023-04-26T17:49:49.000Z,59.10
2023-04-26T17:52:15.765Z,59.50
2023-04-26T17:54:42.614Z,59.80
2023-04-26T17:57:09.683Z,60.30
2023-04-26T17:59:36.468Z,60.70
2023-04-26T18:02:03.334Z,61.00
2023-04-26T18:04:31.657Z,61.60
2023-04-26T18:06:58.810Z,61.80
2023-04-26T18:09:25.581Z,61.80
2023-04-26T18:11:52.366Z,61.20
2023-04-26T18:14:19.117Z,61.20
2023-04-26T18:16:46.009Z,61.40
2023-04-26T18:19:12.815Z,61.80
2023-04-26T18:21:44.101Z,62.60
2023-04-26T18:24:10.938Z,62.80
2023-04-26T18:26:39.040Z,63.50
2023-04-26T18:29:06.085Z,64.20
2023-04-26T18:31:33.480Z,64.60
2023-04-26T18:34:00.349Z,64.90
2023-04-26T18:36:27.221Z,65.30
2023-04-26T18:38:55.465Z,65.30
2023-04-26T18:41:22.218Z,65.60
2023-04-26T18:43:49.021Z,66.10
2023-04-26T18:46:15.854Z,66.20
2023-04-26T18:48:42.649Z,66.20
2023-04-26T18:51:09.425Z,66.10
2023-04-26T18:53:36.184Z,66.20
2023-04-26T18:56:04.729Z,66.40
2023-04-26T18:58:31.644Z,66.50
2023-04-26T19:00:58.457Z,66.50
2023-04-26T19:03:26.153Z,66.50
2023-04-26T19:05:53.087Z,66.60
2023-04-26T19:08:19.898Z,66.50
2023-04-26T19:10:46.644Z,66.90
2023-04-26T19:13:14.794Z,66.90
2023-04-26T19:15:41.608Z,67.00
2023-04-26T19:18:08.582Z,67.70
2023-04-26T19:20:35.467Z,67.60
2023-04-26T19:23:02.215Z,68.00
2023-04-26T19:25:29.049Z,68.80
2023-04-26T19:27:55.786Z,69.70
2023-04-26T19:30:23.958Z,69.90
2023-04-26T19:32:50.768Z,70.00
2023-04-26T19:35:17.536Z,70.60
2023-04-26T19:37:44.288Z,71.10
2023-04-26T19:40:11.109Z,71.40
2023-04-26T19:42:37.851Z,73.20
2023-04-26T19:45:05.347Z,72.90
2023-04-26T19:47:33.545Z,72.70
2023-04-26T19:50:00.281Z,74.10
2023-04-26T19:52:28.691Z,73.40
2023-04-26T19:54:55.571Z,73.80
2023-04-26T19:57:22.339Z,73.90
2023-04-26T19:59:49.056Z,74.50
2023-04-26T20:02:15.957Z,74.50
2023-04-26T20:04:44.186Z,74.70
2023-04-26T20:07:10.938Z,74.90
2023-04-26T20:09:37.682Z,75.20
2023-04-26T20:12:04.679Z,75.50
2023-04-26T20:14:31.430Z,75.50
2023-04-26T20:16:58.283Z,76.40
2023-04-26T20:19:25.052Z,76.00
2023-04-26T20:21:53.184Z,75.90
2023-04-26T20:24:19.989Z,75.70
2023-04-26T20:26:46.772Z,75.60
2023-04-26T20:29:13.589Z,75.80
2023-04-26T20:31:40.462Z,76.70
2023-04-26T20:34:07.237Z,76.10
2023-04-26T20:36:34.085Z,76.10
2023-04-26T20:39:02.275Z,76.10
2023-04-26T20:41:29.004Z,76.40
2023-04-26T20:43:55.955Z,76.40
2023-04-26T20:46:22.853Z,76.40
2023-04-26T20:48:52.592Z,76.70
2023-04-26T20:51:19.413Z,77.20
2023-04-26T20:53:46.177Z,77.40
2023-04-26T20:56:14.324Z,77.60
2023-04-26T20:58:41.151Z,77.80
2023-04-26T21:01:08.051Z,77.90
2023-04-26T21:03:34.994Z,77.90
2023-04-26T21:06:01.923Z,77.80
2023-04-26T21:08:28.686Z,77.90
2023-04-26T21:10:55.503Z,78.00
2023-04-26T21:13:23.650Z,78.80
2023-04-26T21:15:50.481Z,79.10
2023-04-26T21:18:17.285Z,79.30
2023-04-26T21:20:44.022Z,80.10
2023-04-26T21:23:10.777Z,80.50
2023-04-26T21:25:37.568Z,81.20
2023-04-26T21:28:04.514Z,81.10
2023-04-26T21:30:32.620Z,81.10
2023-04-26T21:32:59.395Z,81.30
2023-04-26T21:35:26.183Z,81.30
2023-04-26T21:37:53.004Z,81.40
2023-04-26T21:40:19.834Z,81.50
2023-04-26T21:42:57.728Z,82.30
2023-04-26T21:45:32.199Z,83.10
2023-04-26T21:47:59.018Z,83.00
2023-04-26T21:50:25.935Z,83.00
2023-04-26T21:52:52.889Z,82.90
2023-04-26T21:55:19.665Z,83.20
2023-04-26T21:57:46.413Z,83.10
2023-04-26T22:00:13.750Z,83.30
2023-04-26T22:02:42.128Z,83.40
2023-04-26T22:05:09.464Z,83.80
2023-04-26T22:07:36.260Z,84.00
2023-04-26T22:10:03.418Z,84.10
2023-04-26T22:12:30.208Z,84.30
2023-04-26T22:14:57.076Z,84.40
2023-04-26T22:17:23.945Z,84.70
2023-04-26T22:19:52.040Z,85.30
2023-04-26T22:22:18.838Z,86.20
2023-04-26T22:24:45.583Z,85.80
2023-04-26T22:27:12.578Z,86.40
2023-04-26T22:29:39.355Z,86.60
2023-04-26T22:32:06.239Z,86.50
2023-04-26T22:34:33.065Z,86.70
2023-04-26T22:37:13.304Z,87.00
2023-04-26T22:39:46.776Z,87.30
2023-04-26T22:42:13.675Z,87.70
2023-04-26T22:44:40.470Z,87.70
2023-04-26T22:47:07.305Z,87.70
2023-04-26T22:49:34.064Z,87.70
2023-04-26T22:52:09.863Z,87.70
2023-04-26T22:54:43.904Z,87.80
2023-04-26T22:57:11.348Z,87.70
2023-04-26T22:59:38.189Z,87.90
2023-04-26T23:02:05.033Z,88.20
2023-04-26T23:04:31.829Z,88.40
2023-04-26T23:06:58.664Z,88.70
2023-04-26T23:09:26.975Z,89.00
2023-04-26T23:11:53.854Z,89.30
2023-04-26T23:14:20.654Z,89.30
2023-04-26T23:16:47.524Z,89.40
2023-04-26T23:19:14.683Z,89.50
2023-04-26T23:21:41.743Z,89.70
2023-04-26T23:24:08.745Z,89.90
2023-04-26T23:26:36.890Z,90.00
2023-04-26T23:29:03.666Z,90.10
2023-04-26T23:31:30.540Z,90.10
2023-04-26T23:33:57.313Z,90.20
2023-04-26T23:36:24.092Z,90.90
2023-04-26T23:38:50.988Z,90.50
2023-04-26T23:41:17.885Z,90.80
2023-04-26T23:43:45.995Z,91.30
2023-04-26T23:46:12.819Z,91.40
2023-04-26T23:48:39.641Z,91.60
2023-04-26T23:51:06.474Z,92.30
2023-04-26T23:53:33.931Z,92.40
2023-04-26T23:56:02.091Z,92.40
2023-04-26T23:58:29.808Z,92.70
